Terminal Aerodrome Forecast
Issued by NWS

Home | Current Version | Previous Version | Text Only | Print | Product List | Glossary On
Versions: 1 2 3 4 5 6 7 8 9 10 11 12 13 14 15 16 17 18 19
000
FTUS43 KSGF 271120
TAFBBG
TAF
KBBG 271120Z 2712/2812 VRB03KT P6SM SCT150
     FM271700 13007KT P6SM SCT070
     FM280900 17006KT P6SM BKN035 WS020/20035KT=

USA.gov is the U.S. government's official web portal to all federal, state and local government web resources and services.